sensor_id;sensor_type;location;lat;lon;timestamp;temperature;humidity
3067;DHT22;1544;48.834;9.194;2023-04-06T00:01:57;3.60;27.00
3067;DHT22;1544;48.834;9.194;2023-04-06T00:04:33;3.50;27.00
3067;DHT22;1544;48.834;9.194;2023-04-06T00:07:07;3.50;27.10
3067;DHT22;1544;48.834;9.194;2023-04-06T00:09:42;3.40;27.10
3067;DHT22;1544;48.834;9.194;2023-04-06T00:12:17;3.40;27.20
3067;DHT22;1544;48.834;9.194;2023-04-06T00:14:52;3.30;27.20
3067;DHT22;1544;48.834;9.194;2023-04-06T00:17:28;3.30;27.50
3067;DHT22;1544;48.834;9.194;2023-04-06T00:20:05;3.30;27.30
3067;DHT22;1544;48.834;9.194;2023-04-06T00:22:42;3.30;27.40
3067;DHT22;1544;48.834;9.194;2023-04-06T00:25:18;3.20;27.50
3067;DHT22;1544;48.834;9.194;2023-04-06T00:27:53;3.20;27.60
3067;DHT22;1544;48.834;9.194;2023-04-06T00:30:27;3.20;27.60
3067;DHT22;1544;48.834;9.194;2023-04-06T00:33:03;3.10;27.70
3067;DHT22;1544;48.834;9.194;2023-04-06T00:35:37;3.10;27.90
3067;DHT22;1544;48.834;9.194;2023-04-06T00:38:14;3.10;27.90
3067;DHT22;1544;48.834;9.194;2023-04-06T00:40:49;3.00;27.90
3067;DHT22;1544;48.834;9.194;2023-04-06T00:43:25;3.00;28.00
3067;DHT22;1544;48.834;9.194;2023-04-06T00:46:00;3.00;28.10
3067;DHT22;1544;48.834;9.194;2023-04-06T00:48:35;2.90;28.30
3067;DHT22;1544;48.834;9.194;2023-04-06T00:51:10;2.90;28.50
3067;DHT22;1544;48.834;9.194;2023-04-06T00:53:45;2.90;28.70
3067;DHT22;1544;48.834;9.194;2023-04-06T00:56:20;2.80;28.80
3067;DHT22;1544;48.834;9.194;2023-04-06T00:58:59;2.80;28.80
3067;DHT22;1544;48.834;9.194;2023-04-06T01:01:34;2.80;28.90
3067;DHT22;1544;48.834;9.194;2023-04-06T01:04:18;2.80;29.00
3067;DHT22;1544;48.834;9.194;2023-04-06T01:06:53;2.70;29.10
3067;DHT22;1544;48.834;9.194;2023-04-06T01:09:34;2.70;29.10
3067;DHT22;1544;48.834;9.194;2023-04-06T01:12:14;2.70;29.20
3067;DHT22;1544;48.834;9.194;2023-04-06T01:14:49;2.60;29.30
3067;DHT22;1544;48.834;9.194;2023-04-06T01:17:25;2.60;29.50
3067;DHT22;1544;48.834;9.194;2023-04-06T01:20:00;2.60;29.50
3067;DHT22;1544;48.834;9.194;2023-04-06T01:22:38;2.50;29.40
3067;DHT22;1544;48.834;9.194;2023-04-06T01:25:14;2.50;29.40
3067;DHT22;1544;48.834;9.194;2023-04-06T01:28:00;2.50;29.50
3067;DHT22;1544;48.834;9.194;2023-04-06T01:30:56;2.40;29.70
3067;DHT22;1544;48.834;9.194;2023-04-06T01:33:47;2.40;29.80
3067;DHT22;1544;48.834;9.194;2023-04-06T01:36:25;2.40;30.20
3067;DHT22;1544;48.834;9.194;2023-04-06T01:39:20;2.40;30.00
3067;DHT22;1544;48.834;9.194;2023-04-06T01:41:55;2.30;30.00
3067;DHT22;1544;48.834;9.194;2023-04-06T01:44:31;2.30;30.00
3067;DHT22;1544;48.834;9.194;2023-04-06T01:47:15;2.30;30.20
3067;DHT22;1544;48.834;9.194;2023-04-06T01:49:51;2.20;30.20
3067;DHT22;1544;48.834;9.194;2023-04-06T01:52:26;2.20;30.30
3067;DHT22;1544;48.834;9.194;2023-04-06T01:55:01;2.20;30.40
3067;DHT22;1544;48.834;9.194;2023-04-06T01:57:55;2.20;30.50
3067;DHT22;1544;48.834;9.194;2023-04-06T02:00:40;2.20;30.70
3067;DHT22;1544;48.834;9.194;2023-04-06T02:03:15;2.10;30.80
3067;DHT22;1544;48.834;9.194;2023-04-06T02:05:52;2.10;30.80
3067;DHT22;1544;48.834;9.194;2023-04-06T02:08:34;2.10;30.70
3067;DHT22;1544;48.834;9.194;2023-04-06T02:11:09;2.00;30.70
3067;DHT22;1544;48.834;9.194;2023-04-06T02:13:50;2.00;30.90
3067;DHT22;1544;48.834;9.194;2023-04-06T02:16:25;2.00;31.00
3067;DHT22;1544;48.834;9.194;2023-04-06T02:19:00;2.00;31.00
3067;DHT22;1544;48.834;9.194;2023-04-06T02:21:35;2.00;31.10
3067;DHT22;1544;48.834;9.194;2023-04-06T02:24:10;1.90;31.00
3067;DHT22;1544;48.834;9.194;2023-04-06T02:26:45;1.90;31.10
3067;DHT22;1544;48.834;9.194;2023-04-06T02:29:20;1.90;31.30
3067;DHT22;1544;48.834;9.194;2023-04-06T02:31:56;1.80;31.30
3067;DHT22;1544;48.834;9.194;2023-04-06T02:34:31;1.80;31.30
3067;DHT22;1544;48.834;9.194;2023-04-06T02:37:07;1.70;31.20
3067;DHT22;1544;48.834;9.194;2023-04-06T02:39:43;1.70;31.40
3067;DHT22;1544;48.834;9.194;2023-04-06T02:42:18;1.70;31.50
3067;DHT22;1544;48.834;9.194;2023-04-06T02:44:56;1.70;31.60
3067;DHT22;1544;48.834;9.194;2023-04-06T02:47:34;1.60;31.70
3067;DHT22;1544;48.834;9.194;2023-04-06T02:50:10;1.60;31.80
3067;DHT22;1544;48.834;9.194;2023-04-06T02:52:55;1.60;32.00
3067;DHT22;1544;48.834;9.194;2023-04-06T02:55:31;1.60;32.10
3067;DHT22;1544;48.834;9.194;2023-04-06T02:58:06;1.60;32.20
3067;DHT22;1544;48.834;9.194;2023-04-06T03:00:50;1.60;32.30
3067;DHT22;1544;48.834;9.194;2023-04-06T03:03:25;1.50;32.30
3067;DHT22;1544;48.834;9.194;2023-04-06T03:06:01;1.50;32.50
3067;DHT22;1544;48.834;9.194;2023-04-06T03:08:38;1.50;32.60
3067;DHT22;1544;48.834;9.194;2023-04-06T03:11:12;1.50;32.80
3067;DHT22;1544;48.834;9.194;2023-04-06T03:13:49;1.50;32.80
3067;DHT22;1544;48.834;9.194;2023-04-06T03:16:25;1.50;33.00
3067;DHT22;1544;48.834;9.194;2023-04-06T03:19:00;1.50;33.10
3067;DHT22;1544;48.834;9.194;2023-04-06T03:21:39;1.50;33.10
3067;DHT22;1544;48.834;9.194;2023-04-06T03:24:14;1.40;33.20
3067;DHT22;1544;48.834;9.194;2023-04-06T03:26:50;1.40;33.20
3067;DHT22;1544;48.834;9.194;2023-04-06T03:29:25;1.30;33.20
3067;DHT22;1544;48.834;9.194;2023-04-06T03:32:01;1.30;33.20
3067;DHT22;1544;48.834;9.194;2023-04-06T03:34:41;1.30;33.10
3067;DHT22;1544;48.834;9.194;2023-04-06T03:37:16;1.30;33.10
3067;DHT22;1544;48.834;9.194;2023-04-06T03:39:56;1.20;33.10
3067;DHT22;1544;48.834;9.194;2023-04-06T03:42:32;1.20;33.10
3067;DHT22;1544;48.834;9.194;2023-04-06T03:45:16;1.20;33.10
3067;DHT22;1544;48.834;9.194;2023-04-06T03:47:56;1.20;33.10
3067;DHT22;1544;48.834;9.194;2023-04-06T03:50:32;1.10;33.10
3067;DHT22;1544;48.834;9.194;2023-04-06T03:53:06;1.10;33.20
3067;DHT22;1544;48.834;9.194;2023-04-06T03:55:43;1.10;33.30
3067;DHT22;1544;48.834;9.194;2023-04-06T03:58:18;1.10;33.30
3067;DHT22;1544;48.834;9.194;2023-04-06T04:00:53;1.10;33.40
3067;DHT22;1544;48.834;9.194;2023-04-06T04:03:28;1.10;33.50
3067;DHT22;1544;48.834;9.194;2023-04-06T04:06:03;1.10;33.60
3067;DHT22;1544;48.834;9.194;2023-04-06T04:08:38;1.10;33.60
3067;DHT22;1544;48.834;9.194;2023-04-06T04:11:13;1.10;33.60
3067;DHT22;1544;48.834;9.194;2023-04-06T04:13:48;1.10;33.60
3067;DHT22;1544;48.834;9.194;2023-04-06T04:16:25;1.10;33.60
3067;DHT22;1544;48.834;9.194;2023-04-06T04:19:00;1.00;33.60
3067;DHT22;1544;48.834;9.194;2023-04-06T04:21:43;1.00;33.70
3067;DHT22;1544;48.834;9.194;2023-04-06T04:24:22;1.00;33.80
3067;DHT22;1544;48.834;9.194;2023-04-06T04:26:57;1.00;33.80
3067;DHT22;1544;48.834;9.194;2023-04-06T04:29:33;1.00;34.00
3067;DHT22;1544;48.834;9.194;2023-04-06T04:32:11;1.00;34.00
3067;DHT22;1544;48.834;9.194;2023-04-06T04:34:47;1.00;34.10
3067;DHT22;1544;48.834;9.194;2023-04-06T04:37:35;1.00;34.30
3067;DHT22;1544;48.834;9.194;2023-04-06T04:40:11;1.00;34.40
3067;DHT22;1544;48.834;9.194;2023-04-06T04:43:01;1.10;34.50
3067;DHT22;1544;48.834;9.194;2023-04-06T04:45:39;1.00;34.70
3067;DHT22;1544;48.834;9.194;2023-04-06T04:48:24;1.00;34.80
3067;DHT22;1544;48.834;9.194;2023-04-06T04:51:05;1.00;35.00
3067;DHT22;1544;48.834;9.194;2023-04-06T04:53:54;1.10;35.10
3067;DHT22;1544;48.834;9.194;2023-04-06T04:56:37;1.10;35.20
3067;DHT22;1544;48.834;9.194;2023-04-06T04:59:28;1.10;35.10
3067;DHT22;1544;48.834;9.194;2023-04-06T05:02:14;1.10;35.10
3067;DHT22;1544;48.834;9.194;2023-04-06T05:04:59;1.10;35.00
3067;DHT22;1544;48.834;9.194;2023-04-06T05:07:36;1.20;35.00
3067;DHT22;1544;48.834;9.194;2023-04-06T05:10:12;1.20;34.90
3067;DHT22;1544;48.834;9.194;2023-04-06T05:13:01;1.20;34.90
3067;DHT22;1544;48.834;9.194;2023-04-06T05:15:37;1.20;34.80
3067;DHT22;1544;48.834;9.194;2023-04-06T05:18:25;1.20;34.90
3067;DHT22;1544;48.834;9.194;2023-04-06T05:21:01;1.30;35.00
3067;DHT22;1544;48.834;9.194;2023-04-06T05:23:48;1.30;34.90
3067;DHT22;1544;48.834;9.194;2023-04-06T05:26:24;1.40;34.80
3067;DHT22;1544;48.834;9.194;2023-04-06T05:29:02;1.40;34.80
3067;DHT22;1544;48.834;9.194;2023-04-06T05:31:41;1.50;34.80
3067;DHT22;1544;48.834;9.194;2023-04-06T05:34:16;1.50;34.80
3067;DHT22;1544;48.834;9.194;2023-04-06T05:36:52;1.50;34.70
3067;DHT22;1544;48.834;9.194;2023-04-06T05:39:31;1.60;34.70
3067;DHT22;1544;48.834;9.194;2023-04-06T05:42:07;1.60;34.70
3067;DHT22;1544;48.834;9.194;2023-04-06T05:44:58;1.60;34.80
3067;DHT22;1544;48.834;9.194;2023-04-06T05:47:33;1.60;35.00
3067;DHT22;1544;48.834;9.194;2023-04-06T05:50:18;1.70;35.10
3067;DHT22;1544;48.834;9.194;2023-04-06T05:52:53;1.80;35.20
3067;DHT22;1544;48.834;9.194;2023-04-06T05:55:30;1.80;35.10
3067;DHT22;1544;48.834;9.194;2023-04-06T05:58:17;1.90;35.10
3067;DHT22;1544;48.834;9.194;2023-04-06T06:01:01;1.90;35.30
3067;DHT22;1544;48.834;9.194;2023-04-06T06:03:44;1.90;35.40
3067;DHT22;1544;48.834;9.194;2023-04-06T06:06:20;2.00;35.50
3067;DHT22;1544;48.834;9.194;2023-04-06T06:09:11;2.00;35.40
3067;DHT22;1544;48.834;9.194;2023-04-06T06:11:52;2.10;35.40
3067;DHT22;1544;48.834;9.194;2023-04-06T06:14:31;2.20;35.20
3067;DHT22;1544;48.834;9.194;2023-04-06T06:17:06;2.20;35.20
3067;DHT22;1544;48.834;9.194;2023-04-06T06:19:41;2.30;35.10
3067;DHT22;1544;48.834;9.194;2023-04-06T06:22:16;2.40;35.00
3067;DHT22;1544;48.834;9.194;2023-04-06T06:24:53;2.40;35.00
3067;DHT22;1544;48.834;9.194;2023-04-06T06:27:29;2.50;34.90
3067;DHT22;1544;48.834;9.194;2023-04-06T06:30:05;2.50;34.80
3067;DHT22;1544;48.834;9.194;2023-04-06T06:32:43;2.60;34.70
3067;DHT22;1544;48.834;9.194;2023-04-06T06:35:18;2.70;34.60
3067;DHT22;1544;48.834;9.194;2023-04-06T06:37:54;2.80;34.40
3067;DHT22;1544;48.834;9.194;2023-04-06T06:40:34;2.90;34.20
3067;DHT22;1544;48.834;9.194;2023-04-06T06:43:09;3.00;34.00
3067;DHT22;1544;48.834;9.194;2023-04-06T06:45:57;3.10;33.80
3067;DHT22;1544;48.834;9.194;2023-04-06T06:48:33;3.20;33.60
3067;DHT22;1544;48.834;9.194;2023-04-06T06:51:08;3.30;33.40
3067;DHT22;1544;48.834;9.194;2023-04-06T06:53:44;3.40;33.30
3067;DHT22;1544;48.834;9.194;2023-04-06T06:56:19;3.50;32.90
3067;DHT22;1544;48.834;9.194;2023-04-06T06:58:54;3.50;32.50
3067;DHT22;1544;48.834;9.194;2023-04-06T07:01:30;3.60;32.30
3067;DHT22;1544;48.834;9.194;2023-04-06T07:04:06;3.70;32.10
3067;DHT22;1544;48.834;9.194;2023-04-06T07:06:43;3.80;31.90
3067;DHT22;1544;48.834;9.194;2023-04-06T07:09:19;3.90;31.80
3067;DHT22;1544;48.834;9.194;2023-04-06T07:11:55;4.00;31.60
3067;DHT22;1544;48.834;9.194;2023-04-06T07:14:31;4.10;31.60
3067;DHT22;1544;48.834;9.194;2023-04-06T07:17:06;4.20;31.50
3067;DHT22;1544;48.834;9.194;2023-04-06T07:19:42;4.30;31.40
3067;DHT22;1544;48.834;9.194;2023-04-06T07:22:17;4.40;31.40
3067;DHT22;1544;48.834;9.194;2023-04-06T07:24:52;4.40;31.10
3067;DHT22;1544;48.834;9.194;2023-04-06T07:27:27;4.60;31.20
3067;DHT22;1544;48.834;9.194;2023-04-06T07:30:02;4.70;30.90
3067;DHT22;1544;48.834;9.194;2023-04-06T07:32:38;4.80;30.80
3067;DHT22;1544;48.834;9.194;2023-04-06T07:35:14;4.90;30.50
3067;DHT22;1544;48.834;9.194;2023-04-06T07:37:49;5.00;30.30
3067;DHT22;1544;48.834;9.194;2023-04-06T07:40:25;5.10;30.30
3067;DHT22;1544;48.834;9.194;2023-04-06T07:43:02;5.20;30.10
3067;DHT22;1544;48.834;9.194;2023-04-06T07:45:38;5.30;30.00
3067;DHT22;1544;48.834;9.194;2023-04-06T07:48:13;5.40;30.10
3067;DHT22;1544;48.834;9.194;2023-04-06T07:50:49;5.50;30.00
3067;DHT22;1544;48.834;9.194;2023-04-06T07:53:27;5.60;30.00
3067;DHT22;1544;48.834;9.194;2023-04-06T07:56:02;5.60;29.80
3067;DHT22;1544;48.834;9.194;2023-04-06T07:58:37;5.70;29.70
3067;DHT22;1544;48.834;9.194;2023-04-06T08:01:13;5.80;29.70
3067;DHT22;1544;48.834;9.194;2023-04-06T08:03:48;6.00;29.80
3067;DHT22;1544;48.834;9.194;2023-04-06T08:06:23;6.10;29.50
3067;DHT22;1544;48.834;9.194;2023-04-06T08:08:59;6.10;29.40
3067;DHT22;1544;48.834;9.194;2023-04-06T08:11:34;6.20;29.30
3067;DHT22;1544;48.834;9.194;2023-04-06T08:14:09;6.30;29.20
3067;DHT22;1544;48.834;9.194;2023-04-06T08:16:44;6.50;29.10
3067;DHT22;1544;48.834;9.194;2023-04-06T08:19:19;6.60;29.10
3067;DHT22;1544;48.834;9.194;2023-04-06T08:21:54;6.70;29.00
3067;DHT22;1544;48.834;9.194;2023-04-06T08:24:29;6.80;29.00
3067;DHT22;1544;48.834;9.194;2023-04-06T08:27:05;6.90;29.00
3067;DHT22;1544;48.834;9.194;2023-04-06T08:29:40;7.00;28.90
3067;DHT22;1544;48.834;9.194;2023-04-06T08:32:15;7.20;28.80
3067;DHT22;1544;48.834;9.194;2023-04-06T08:34:54;7.30;28.70
3067;DHT22;1544;48.834;9.194;2023-04-06T08:37:29;7.40;28.50
3067;DHT22;1544;48.834;9.194;2023-04-06T08:40:05;7.50;28.40
3067;DHT22;1544;48.834;9.194;2023-04-06T08:42:44;7.60;28.40
3067;DHT22;1544;48.834;9.194;2023-04-06T08:45:25;7.70;28.40
3067;DHT22;1544;48.834;9.194;2023-04-06T08:48:00;7.80;28.40
3067;DHT22;1544;48.834;9.194;2023-04-06T08:50:38;8.00;28.50
3067;DHT22;1544;48.834;9.194;2023-04-06T08:53:14;8.10;28.40
3067;DHT22;1544;48.834;9.194;2023-04-06T08:55:53;8.20;28.40
3067;DHT22;1544;48.834;9.194;2023-04-06T08:58:35;8.30;28.20
3067;DHT22;1544;48.834;9.194;2023-04-06T09:01:13;8.40;27.90
3067;DHT22;1544;48.834;9.194;2023-04-06T09:03:51;8.50;27.90
3067;DHT22;1544;48.834;9.194;2023-04-06T09:06:31;8.60;27.70
3067;DHT22;1544;48.834;9.194;2023-04-06T09:09:06;8.70;27.40
3067;DHT22;1544;48.834;9.194;2023-04-06T09:11:45;8.80;27.20
3067;DHT22;1544;48.834;9.194;2023-04-06T09:14:38;8.90;27.20
3067;DHT22;1544;48.834;9.194;2023-04-06T09:17:24;9.10;27.00
3067;DHT22;1544;48.834;9.194;2023-04-06T09:20:01;9.20;26.50
3067;DHT22;1544;48.834;9.194;2023-04-06T09:22:39;9.30;26.30
3067;DHT22;1544;48.834;9.194;2023-04-06T09:25:19;9.40;26.00
3067;DHT22;1544;48.834;9.194;2023-04-06T09:28:03;9.50;26.00
3067;DHT22;1544;48.834;9.194;2023-04-06T09:30:48;9.60;25.80
3067;DHT22;1544;48.834;9.194;2023-04-06T09:33:24;9.80;25.40
3067;DHT22;1544;48.834;9.194;2023-04-06T09:35:59;9.90;25.00
3067;DHT22;1544;48.834;9.194;2023-04-06T09:38:33;10.00;24.10
3067;DHT22;1544;48.834;9.194;2023-04-06T09:41:08;10.10;24.30
3067;DHT22;1544;48.834;9.194;2023-04-06T09:43:44;10.20;24.30
3067;DHT22;1544;48.834;9.194;2023-04-06T09:46:21;10.30;24.20
3067;DHT22;1544;48.834;9.194;2023-04-06T09:48:57;10.40;24.10
3067;DHT22;1544;48.834;9.194;2023-04-06T09:51:37;10.60;24.20
3067;DHT22;1544;48.834;9.194;2023-04-06T09:54:19;10.70;24.10
3067;DHT22;1544;48.834;9.194;2023-04-06T10:03:08;11.10;23.50
3067;DHT22;1544;48.834;9.194;2023-04-06T10:06:02;11.20;22.80
3067;DHT22;1544;48.834;9.194;2023-04-06T10:08:40;11.30;23.10
3067;DHT22;1544;48.834;9.194;2023-04-06T10:11:18;11.40;23.30
3067;DHT22;1544;48.834;9.194;2023-04-06T10:13:53;11.60;23.50
3067;DHT22;1544;48.834;9.194;2023-04-06T10:16:29;11.70;22.80
3067;DHT22;1544;48.834;9.194;2023-04-06T10:19:12;11.90;22.40
3067;DHT22;1544;48.834;9.194;2023-04-06T10:21:51;12.00;22.20
3067;DHT22;1544;48.834;9.194;2023-04-06T10:24:28;12.10;22.40
3067;DHT22;1544;48.834;9.194;2023-04-06T10:27:04;12.30;22.40
3067;DHT22;1544;48.834;9.194;2023-04-06T10:29:46;12.40;22.30
3067;DHT22;1544;48.834;9.194;2023-04-06T10:32:35;12.50;22.20
3067;DHT22;1544;48.834;9.194;2023-04-06T10:35:11;12.60;22.20
3067;DHT22;1544;48.834;9.194;2023-04-06T10:38:00;12.80;22.20
3067;DHT22;1544;48.834;9.194;2023-04-06T10:40:38;12.80;20.50
3067;DHT22;1544;48.834;9.194;2023-04-06T10:43:21;12.80;20.60
3067;DHT22;1544;48.834;9.194;2023-04-06T10:46:00;12.90;20.80
3067;DHT22;1544;48.834;9.194;2023-04-06T10:48:40;13.10;21.50
3067;DHT22;1544;48.834;9.194;2023-04-06T10:51:29;13.10;21.50
3067;DHT22;1544;48.834;9.194;2023-04-06T10:54:07;13.20;21.60
3067;DHT22;1544;48.834;9.194;2023-04-06T10:56:42;13.30;21.70
3067;DHT22;1544;48.834;9.194;2023-04-06T10:59:21;13.50;21.60
3067;DHT22;1544;48.834;9.194;2023-04-06T11:01:57;13.70;21.80
3067;DHT22;1544;48.834;9.194;2023-04-06T11:04:32;13.80;21.60
3067;DHT22;1544;48.834;9.194;2023-04-06T11:07:07;13.90;21.30
3067;DHT22;1544;48.834;9.194;2023-04-06T11:09:42;14.00;20.90
3067;DHT22;1544;48.834;9.194;2023-04-06T11:12:26;14.10;21.20
3067;DHT22;1544;48.834;9.194;2023-04-06T11:15:03;14.30;21.40
3067;DHT22;1544;48.834;9.194;2023-04-06T11:17:39;14.50;21.50
3067;DHT22;1544;48.834;9.194;2023-04-06T11:20:14;14.60;21.00
3067;DHT22;1544;48.834;9.194;2023-04-06T11:22:51;14.60;20.70
3067;DHT22;1544;48.834;9.194;2023-04-06T11:25:26;14.70;20.70
3067;DHT22;1544;48.834;9.194;2023-04-06T11:28:02;14.60;20.10
3067;DHT22;1544;48.834;9.194;2023-04-06T11:30:37;14.60;20.60
3067;DHT22;1544;48.834;9.194;2023-04-06T11:33:20;14.80;21.20
3067;DHT22;1544;48.834;9.194;2023-04-06T11:35:57;15.00;21.00
3067;DHT22;1544;48.834;9.194;2023-04-06T11:38:32;15.20;21.10
3067;DHT22;1544;48.834;9.194;2023-04-06T11:41:07;15.40;20.90
3067;DHT22;1544;48.834;9.194;2023-04-06T11:43:47;15.60;20.90
3067;DHT22;1544;48.834;9.194;2023-04-06T11:46:22;15.90;20.80
3067;DHT22;1544;48.834;9.194;2023-04-06T11:49:01;16.10;20.40
3067;DHT22;1544;48.834;9.194;2023-04-06T11:51:36;16.30;20.10
3067;DHT22;1544;48.834;9.194;2023-04-06T11:54:12;16.50;20.70
3067;DHT22;1544;48.834;9.194;2023-04-06T11:56:47;16.60;20.50
3067;DHT22;1544;48.834;9.194;2023-04-06T11:59:22;16.80;20.30
3067;DHT22;1544;48.834;9.194;2023-04-06T12:01:57;17.00;20.60
3067;DHT22;1544;48.834;9.194;2023-04-06T12:04:33;17.20;21.20
3067;DHT22;1544;48.834;9.194;2023-04-06T12:07:08;17.30;20.70
3067;DHT22;1544;48.834;9.194;2023-04-06T12:09:43;17.50;20.90
3067;DHT22;1544;48.834;9.194;2023-04-06T12:12:18;17.60;21.10
3067;DHT22;1544;48.834;9.194;2023-04-06T12:14:53;17.80;20.30
3067;DHT22;1544;48.834;9.194;2023-04-06T12:17:28;17.90;19.30
3067;DHT22;1544;48.834;9.194;2023-04-06T12:20:03;17.80;18.60
3067;DHT22;1544;48.834;9.194;2023-04-06T12:22:55;17.70;18.40
3067;DHT22;1544;48.834;9.194;2023-04-06T12:25:30;17.60;19.10
3067;DHT22;1544;48.834;9.194;2023-04-06T12:28:06;17.80;19.20
3067;DHT22;1544;48.834;9.194;2023-04-06T12:30:41;18.10;20.30
3067;DHT22;1544;48.834;9.194;2023-04-06T12:33:16;18.30;20.90
3067;DHT22;1544;48.834;9.194;2023-04-06T12:35:51;18.60;20.80
3067;DHT22;1544;48.834;9.194;2023-04-06T12:38:26;18.90;20.20
3067;DHT22;1544;48.834;9.194;2023-04-06T12:41:03;19.10;21.40
3067;DHT22;1544;48.834;9.194;2023-04-06T12:43:39;19.30;20.60
3067;DHT22;1544;48.834;9.194;2023-04-06T12:46:16;19.50;20.50
3067;DHT22;1544;48.834;9.194;2023-04-06T12:48:51;19.70;20.30
3067;DHT22;1544;48.834;9.194;2023-04-06T12:51:30;20.00;20.40
3067;DHT22;1544;48.834;9.194;2023-04-06T12:54:05;20.40;20.70
3067;DHT22;1544;48.834;9.194;2023-04-06T12:56:41;20.60;20.60
3067;DHT22;1544;48.834;9.194;2023-04-06T12:59:16;20.90;20.60
3067;DHT22;1544;48.834;9.194;2023-04-06T13:01:51;21.20;19.70
3067;DHT22;1544;48.834;9.194;2023-04-06T13:04:27;21.40;19.40
3067;DHT22;1544;48.834;9.194;2023-04-06T13:07:02;21.80;21.30
3067;DHT22;1544;48.834;9.194;2023-04-06T13:09:37;22.10;21.40
3067;DHT22;1544;48.834;9.194;2023-04-06T13:12:13;22.40;18.80
3067;DHT22;1544;48.834;9.194;2023-04-06T13:14:48;22.40;19.10
3067;DHT22;1544;48.834;9.194;2023-04-06T13:17:27;22.50;20.80
3067;DHT22;1544;48.834;9.194;2023-04-06T13:20:02;22.60;18.80
3067;DHT22;1544;48.834;9.194;2023-04-06T13:22:38;22.70;19.20
3067;DHT22;1544;48.834;9.194;2023-04-06T13:25:13;22.80;19.20
3067;DHT22;1544;48.834;9.194;2023-04-06T13:27:48;22.60;18.30
3067;DHT22;1544;48.834;9.194;2023-04-06T13:30:23;22.50;18.30
3067;DHT22;1544;48.834;9.194;2023-04-06T13:32:59;22.40;18.70
3067;DHT22;1544;48.834;9.194;2023-04-06T13:35:34;22.50;19.10
3067;DHT22;1544;48.834;9.194;2023-04-06T13:38:10;22.60;20.50
3067;DHT22;1544;48.834;9.194;2023-04-06T13:40:45;22.70;19.00
3067;DHT22;1544;48.834;9.194;2023-04-06T13:43:21;22.90;19.10
3067;DHT22;1544;48.834;9.194;2023-04-06T13:45:57;23.00;19.10
3067;DHT22;1544;48.834;9.194;2023-04-06T13:48:34;23.30;19.30
3067;DHT22;1544;48.834;9.194;2023-04-06T13:53:48;23.80;19.80
3067;DHT22;1544;48.834;9.194;2023-04-06T13:56:27;24.10;20.50
3067;DHT22;1544;48.834;9.194;2023-04-06T13:59:03;24.30;19.80
3067;DHT22;1544;48.834;9.194;2023-04-06T14:01:38;24.40;19.90
3067;DHT22;1544;48.834;9.194;2023-04-06T14:04:13;24.40;18.90
3067;DHT22;1544;48.834;9.194;2023-04-06T14:06:48;24.30;19.90
3067;DHT22;1544;48.834;9.194;2023-04-06T14:09:23;24.30;18.90
3067;DHT22;1544;48.834;9.194;2023-04-06T14:11:58;24.30;19.10
3067;DHT22;1544;48.834;9.194;2023-04-06T14:14:33;24.10;18.10
3067;DHT22;1544;48.834;9.194;2023-04-06T14:17:08;23.90;19.10
3067;DHT22;1544;48.834;9.194;2023-04-06T14:19:43;23.90;19.50
3067;DHT22;1544;48.834;9.194;2023-04-06T14:22:18;23.80;19.60
3067;DHT22;1544;48.834;9.194;2023-04-06T14:24:53;23.80;19.50
3067;DHT22;1544;48.834;9.194;2023-04-06T14:27:28;23.80;19.50
3067;DHT22;1544;48.834;9.194;2023-04-06T14:30:04;23.80;18.60
3067;DHT22;1544;48.834;9.194;2023-04-06T14:32:39;23.80;18.90
3067;DHT22;1544;48.834;9.194;2023-04-06T14:35:15;23.80;19.30
3067;DHT22;1544;48.834;9.194;2023-04-06T14:37:50;23.90;19.60
3067;DHT22;1544;48.834;9.194;2023-04-06T14:40:25;24.00;19.10
3067;DHT22;1544;48.834;9.194;2023-04-06T14:43:00;24.10;19.70
3067;DHT22;1544;48.834;9.194;2023-04-06T14:45:35;24.10;19.20
3067;DHT22;1544;48.834;9.194;2023-04-06T14:48:11;24.10;19.00
3067;DHT22;1544;48.834;9.194;2023-04-06T14:50:53;24.30;19.80
3067;DHT22;1544;48.834;9.194;2023-04-06T14:53:29;24.20;19.50
3067;DHT22;1544;48.834;9.194;2023-04-06T14:56:04;24.10;19.10
3067;DHT22;1544;48.834;9.194;2023-04-06T14:58:40;24.10;19.10
3067;DHT22;1544;48.834;9.194;2023-04-06T15:01:14;23.90;18.60
3067;DHT22;1544;48.834;9.194;2023-04-06T15:03:49;23.80;18.70
3067;DHT22;1544;48.834;9.194;2023-04-06T15:06:25;23.60;19.00
3067;DHT22;1544;48.834;9.194;2023-04-06T15:09:00;23.50;18.10
3067;DHT22;1544;48.834;9.194;2023-04-06T15:11:35;23.50;19.20
3067;DHT22;1544;48.834;9.194;2023-04-06T15:14:10;23.40;19.30
3067;DHT22;1544;48.834;9.194;2023-04-06T15:16:44;23.30;19.00
3067;DHT22;1544;48.834;9.194;2023-04-06T15:19:19;23.20;19.20
3067;DHT22;1544;48.834;9.194;2023-04-06T15:21:54;23.00;19.10
3067;DHT22;1544;48.834;9.194;2023-04-06T15:24:29;22.80;19.00
3067;DHT22;1544;48.834;9.194;2023-04-06T15:27:04;22.80;18.70
3067;DHT22;1544;48.834;9.194;2023-04-06T15:29:39;22.70;19.00
3067;DHT22;1544;48.834;9.194;2023-04-06T15:32:14;22.60;18.80
3067;DHT22;1544;48.834;9.194;2023-04-06T15:34:49;22.50;18.60
3067;DHT22;1544;48.834;9.194;2023-04-06T15:37:25;22.30;18.60
3067;DHT22;1544;48.834;9.194;2023-04-06T15:40:01;22.20;19.00
3067;DHT22;1544;48.834;9.194;2023-04-06T15:42:35;22.10;19.30
3067;DHT22;1544;48.834;9.194;2023-04-06T15:45:11;22.10;19.40
3067;DHT22;1544;48.834;9.194;2023-04-06T15:47:46;22.00;19.20
3067;DHT22;1544;48.834;9.194;2023-04-06T15:50:21;21.90;19.40
3067;DHT22;1544;48.834;9.194;2023-04-06T15:52:55;21.70;18.80
3067;DHT22;1544;48.834;9.194;2023-04-06T15:55:30;21.60;19.20
3067;DHT22;1544;48.834;9.194;2023-04-06T15:58:05;21.50;19.10
3067;DHT22;1544;48.834;9.194;2023-04-06T16:00:41;21.50;19.20
3067;DHT22;1544;48.834;9.194;2023-04-06T16:03:16;21.40;18.50
3067;DHT22;1544;48.834;9.194;2023-04-06T16:05:52;21.30;18.70
3067;DHT22;1544;48.834;9.194;2023-04-06T16:08:33;21.20;18.20
3067;DHT22;1544;48.834;9.194;2023-04-06T16:11:08;21.10;18.20
3067;DHT22;1544;48.834;9.194;2023-04-06T16:13:43;20.90;18.50
3067;DHT22;1544;48.834;9.194;2023-04-06T16:16:28;20.70;18.70
3067;DHT22;1544;48.834;9.194;2023-04-06T16:19:03;20.60;18.60
3067;DHT22;1544;48.834;9.194;2023-04-06T16:21:39;20.40;18.40
3067;DHT22;1544;48.834;9.194;2023-04-06T16:24:14;20.30;18.50
3067;DHT22;1544;48.834;9.194;2023-04-06T16:26:49;20.10;18.50
3067;DHT22;1544;48.834;9.194;2023-04-06T16:29:25;20.00;18.60
3067;DHT22;1544;48.834;9.194;2023-04-06T16:32:05;19.80;18.80
3067;DHT22;1544;48.834;9.194;2023-04-06T16:34:40;19.60;19.10
3067;DHT22;1544;48.834;9.194;2023-04-06T16:37:15;19.50;19.40
3067;DHT22;1544;48.834;9.194;2023-04-06T16:39:50;19.40;19.30
3067;DHT22;1544;48.834;9.194;2023-04-06T16:42:25;19.30;18.80
3067;DHT22;1544;48.834;9.194;2023-04-06T16:45:00;19.10;18.40
3067;DHT22;1544;48.834;9.194;2023-04-06T16:47:37;18.80;18.80
3067;DHT22;1544;48.834;9.194;2023-04-06T16:50:12;18.40;19.40
3067;DHT22;1544;48.834;9.194;2023-04-06T16:52:47;18.00;19.70
3067;DHT22;1544;48.834;9.194;2023-04-06T16:55:22;17.80;19.90
3067;DHT22;1544;48.834;9.194;2023-04-06T16:57:57;17.50;19.90
3067;DHT22;1544;48.834;9.194;2023-04-06T17:00:32;17.20;20.00
3067;DHT22;1544;48.834;9.194;2023-04-06T17:03:07;16.90;20.10
3067;DHT22;1544;48.834;9.194;2023-04-06T17:05:42;16.50;20.20
3067;DHT22;1544;48.834;9.194;2023-04-06T17:08:18;16.20;20.30
3067;DHT22;1544;48.834;9.194;2023-04-06T17:10:54;15.90;20.20
3067;DHT22;1544;48.834;9.194;2023-04-06T17:13:36;15.70;19.80
3067;DHT22;1544;48.834;9.194;2023-04-06T17:16:11;15.40;19.60
3067;DHT22;1544;48.834;9.194;2023-04-06T17:18:46;15.20;19.50
3067;DHT22;1544;48.834;9.194;2023-04-06T17:21:21;15.00;19.20
3067;DHT22;1544;48.834;9.194;2023-04-06T17:23:56;14.90;19.40